sensor_id;sensor_type;location;lat;lon;timestamp;P1;durP1;ratioP1;P2;durP2;ratioP2
3133;SDS011;1577;49.912;10.924;2023-12-07T00:00:36;23.47;;;16.00;;
3133;SDS011;1577;49.912;10.924;2023-12-07T00:03:01;23.00;;;15.90;;
3133;SDS011;1577;49.912;10.924;2023-12-07T00:05:27;24.87;;;16.30;;
3133;SDS011;1577;49.912;10.924;2023-12-07T00:07:53;26.73;;;15.77;;
3133;SDS011;1577;49.912;10.924;2023-12-07T00:10:18;24.13;;;15.77;;
3133;SDS011;1577;49.912;10.924;2023-12-07T00:12:44;26.90;;;16.77;;
3133;SDS011;1577;49.912;10.924;2023-12-07T00:15:09;25.87;;;16.67;;
3133;SDS011;1577;49.912;10.924;2023-12-07T00:17:35;23.87;;;15.80;;
3133;SDS011;1577;49.912;10.924;2023-12-07T00:20:01;23.80;;;15.37;;
3133;SDS011;1577;49.912;10.924;2023-12-07T00:22:29;26.73;;;15.87;;
3133;SDS011;1577;49.912;10.924;2023-12-07T00:24:54;27.53;;;16.97;;
3133;SDS011;1577;49.912;10.924;2023-12-07T00:27:20;26.23;;;16.10;;
3133;SDS011;1577;49.912;10.924;2023-12-07T00:29:46;27.80;;;16.53;;
3133;SDS011;1577;49.912;10.924;2023-12-07T00:32:11;24.50;;;15.67;;
3133;SDS011;1577;49.912;10.924;2023-12-07T00:34:37;23.83;;;15.53;;
3133;SDS011;1577;49.912;10.924;2023-12-07T00:37:03;25.60;;;15.67;;
3133;SDS011;1577;49.912;10.924;2023-12-07T00:39:28;21.97;;;14.70;;
3133;SDS011;1577;49.912;10.924;2023-12-07T00:41:54;26.83;;;16.40;;
3133;SDS011;1577;49.912;10.924;2023-12-07T00:44:19;25.53;;;16.53;;
3133;SDS011;1577;49.912;10.924;2023-12-07T00:46:45;30.80;;;17.00;;
3133;SDS011;1577;49.912;10.924;2023-12-07T00:49:11;25.77;;;16.30;;
3133;SDS011;1577;49.912;10.924;2023-12-07T00:51:37;26.60;;;16.27;;
3133;SDS011;1577;49.912;10.924;2023-12-07T00:54:02;26.00;;;16.73;;
3133;SDS011;1577;49.912;10.924;2023-12-07T00:56:28;24.47;;;15.60;;
3133;SDS011;1577;49.912;10.924;2023-12-07T00:58:59;26.17;;;15.90;;
3133;SDS011;1577;49.912;10.924;2023-12-07T01:01:24;24.50;;;15.73;;
3133;SDS011;1577;49.912;10.924;2023-12-07T01:03:50;27.10;;;15.53;;
3133;SDS011;1577;49.912;10.924;2023-12-07T01:06:16;22.80;;;14.57;;
3133;SDS011;1577;49.912;10.924;2023-12-07T01:08:41;23.00;;;14.00;;
3133;SDS011;1577;49.912;10.924;2023-12-07T01:11:08;18.80;;;12.80;;
3133;SDS011;1577;49.912;10.924;2023-12-07T01:13:34;21.27;;;13.10;;
3133;SDS011;1577;49.912;10.924;2023-12-07T01:16:01;18.33;;;11.77;;
3133;SDS011;1577;49.912;10.924;2023-12-07T01:18:26;25.60;;;14.30;;
3133;SDS011;1577;49.912;10.924;2023-12-07T01:20:52;22.13;;;14.20;;
3133;SDS011;1577;49.912;10.924;2023-12-07T01:23:17;21.47;;;13.13;;
3133;SDS011;1577;49.912;10.924;2023-12-07T01:25:43;19.63;;;13.20;;
3133;SDS011;1577;49.912;10.924;2023-12-07T01:28:08;20.33;;;12.67;;
3133;SDS011;1577;49.912;10.924;2023-12-07T01:30:34;17.17;;;11.30;;
3133;SDS011;1577;49.912;10.924;2023-12-07T01:33:01;20.70;;;13.17;;
3133;SDS011;1577;49.912;10.924;2023-12-07T01:35:26;17.77;;;12.60;;
3133;SDS011;1577;49.912;10.924;2023-12-07T01:37:53;18.20;;;12.10;;
3133;SDS011;1577;49.912;10.924;2023-12-07T01:40:19;21.17;;;12.50;;
3133;SDS011;1577;49.912;10.924;2023-12-07T01:42:51;18.17;;;12.17;;
3133;SDS011;1577;49.912;10.924;2023-12-07T01:45:17;21.53;;;13.87;;
3133;SDS011;1577;49.912;10.924;2023-12-07T01:47:43;16.60;;;11.60;;
3133;SDS011;1577;49.912;10.924;2023-12-07T01:50:09;20.33;;;12.37;;
3133;SDS011;1577;49.912;10.924;2023-12-07T01:52:36;20.33;;;13.30;;
3133;SDS011;1577;49.912;10.924;2023-12-07T01:55:06;19.60;;;12.70;;
3133;SDS011;1577;49.912;10.924;2023-12-07T01:57:34;18.00;;;12.30;;
3133;SDS011;1577;49.912;10.924;2023-12-07T02:00:00;18.37;;;12.60;;
3133;SDS011;1577;49.912;10.924;2023-12-07T02:05:03;17.67;;;12.10;;
3133;SDS011;1577;49.912;10.924;2023-12-07T02:07:30;16.70;;;11.83;;
3133;SDS011;1577;49.912;10.924;2023-12-07T02:09:57;15.53;;;11.90;;
3133;SDS011;1577;49.912;10.924;2023-12-07T02:12:23;17.13;;;12.40;;
3133;SDS011;1577;49.912;10.924;2023-12-07T02:14:49;17.93;;;12.97;;
3133;SDS011;1577;49.912;10.924;2023-12-07T02:19:49;21.27;;;12.90;;
3133;SDS011;1577;49.912;10.924;2023-12-07T02:22:36;18.67;;;12.30;;
3133;SDS011;1577;49.912;10.924;2023-12-07T02:25:07;18.10;;;12.20;;
3133;SDS011;1577;49.912;10.924;2023-12-07T02:27:35;20.70;;;14.03;;
3133;SDS011;1577;49.912;10.924;2023-12-07T02:30:02;23.57;;;13.67;;
3133;SDS011;1577;49.912;10.924;2023-12-07T02:32:29;22.67;;;13.83;;
3133;SDS011;1577;49.912;10.924;2023-12-07T02:34:54;19.10;;;12.73;;
3133;SDS011;1577;49.912;10.924;2023-12-07T02:37:20;24.50;;;13.87;;
3133;SDS011;1577;49.912;10.924;2023-12-07T02:39:49;20.53;;;14.43;;
3133;SDS011;1577;49.912;10.924;2023-12-07T02:42:17;20.40;;;13.27;;
3133;SDS011;1577;49.912;10.924;2023-12-07T02:44:44;19.30;;;13.13;;
3133;SDS011;1577;49.912;10.924;2023-12-07T02:47:10;22.20;;;12.80;;
3133;SDS011;1577;49.912;10.924;2023-12-07T02:49:35;20.67;;;14.00;;
3133;SDS011;1577;49.912;10.924;2023-12-07T02:52:01;18.70;;;12.33;;
3133;SDS011;1577;49.912;10.924;2023-12-07T02:54:27;18.40;;;13.30;;
3133;SDS011;1577;49.912;10.924;2023-12-07T02:56:52;17.83;;;12.67;;
3133;SDS011;1577;49.912;10.924;2023-12-07T02:59:18;20.70;;;13.57;;
3133;SDS011;1577;49.912;10.924;2023-12-07T03:01:43;22.27;;;14.50;;
3133;SDS011;1577;49.912;10.924;2023-12-07T03:04:09;22.43;;;13.67;;
3133;SDS011;1577;49.912;10.924;2023-12-07T03:06:34;22.20;;;13.53;;
3133;SDS011;1577;49.912;10.924;2023-12-07T03:09:00;24.40;;;13.97;;
3133;SDS011;1577;49.912;10.924;2023-12-07T03:11:26;20.10;;;12.53;;
3133;SDS011;1577;49.912;10.924;2023-12-07T03:13:51;19.63;;;12.63;;
3133;SDS011;1577;49.912;10.924;2023-12-07T03:16:17;19.63;;;13.47;;
3133;SDS011;1577;49.912;10.924;2023-12-07T03:18:42;19.50;;;14.30;;
3133;SDS011;1577;49.912;10.924;2023-12-07T03:21:08;24.53;;;13.63;;
3133;SDS011;1577;49.912;10.924;2023-12-07T03:23:33;18.50;;;13.30;;
3133;SDS011;1577;49.912;10.924;2023-12-07T03:25:59;24.33;;;13.90;;
3133;SDS011;1577;49.912;10.924;2023-12-07T03:28:25;22.07;;;13.07;;
3133;SDS011;1577;49.912;10.924;2023-12-07T03:30:50;20.50;;;13.70;;
3133;SDS011;1577;49.912;10.924;2023-12-07T03:33:16;20.27;;;13.27;;
3133;SDS011;1577;49.912;10.924;2023-12-07T03:35:41;19.90;;;13.37;;
3133;SDS011;1577;49.912;10.924;2023-12-07T03:38:07;19.40;;;13.57;;
3133;SDS011;1577;49.912;10.924;2023-12-07T03:40:32;24.30;;;14.70;;
3133;SDS011;1577;49.912;10.924;2023-12-07T03:42:58;18.80;;;12.63;;
3133;SDS011;1577;49.912;10.924;2023-12-07T03:45:24;20.93;;;13.70;;
3133;SDS011;1577;49.912;10.924;2023-12-07T03:47:49;21.63;;;14.00;;
3133;SDS011;1577;49.912;10.924;2023-12-07T03:50:15;22.10;;;13.13;;
3133;SDS011;1577;49.912;10.924;2023-12-07T03:52:40;18.73;;;13.33;;
3133;SDS011;1577;49.912;10.924;2023-12-07T03:55:06;21.60;;;13.70;;
3133;SDS011;1577;49.912;10.924;2023-12-07T03:57:32;19.80;;;13.40;;
3133;SDS011;1577;49.912;10.924;2023-12-07T03:59:58;22.50;;;14.07;;
3133;SDS011;1577;49.912;10.924;2023-12-07T04:02:23;25.57;;;14.10;;
3133;SDS011;1577;49.912;10.924;2023-12-07T04:04:49;27.67;;;14.07;;
3133;SDS011;1577;49.912;10.924;2023-12-07T04:07:14;25.50;;;14.27;;
3133;SDS011;1577;49.912;10.924;2023-12-07T04:09:40;21.07;;;12.67;;
3133;SDS011;1577;49.912;10.924;2023-12-07T04:12:06;22.00;;;13.10;;
3133;SDS011;1577;49.912;10.924;2023-12-07T04:14:31;28.20;;;15.37;;
3133;SDS011;1577;49.912;10.924;2023-12-07T04:16:57;23.03;;;14.10;;
3133;SDS011;1577;49.912;10.924;2023-12-07T04:19:23;24.53;;;14.80;;
3133;SDS011;1577;49.912;10.924;2023-12-07T04:21:48;28.40;;;15.13;;
3133;SDS011;1577;49.912;10.924;2023-12-07T04:24:14;24.60;;;15.07;;
3133;SDS011;1577;49.912;10.924;2023-12-07T04:26:39;30.93;;;14.80;;
3133;SDS011;1577;49.912;10.924;2023-12-07T04:29:05;23.90;;;14.93;;
3133;SDS011;1577;49.912;10.924;2023-12-07T04:31:30;25.57;;;14.73;;
3133;SDS011;1577;49.912;10.924;2023-12-07T04:33:56;27.10;;;15.40;;
3133;SDS011;1577;49.912;10.924;2023-12-07T04:36:21;31.23;;;17.30;;
3133;SDS011;1577;49.912;10.924;2023-12-07T04:38:47;30.70;;;16.40;;
3133;SDS011;1577;49.912;10.924;2023-12-07T04:41:13;29.70;;;16.57;;
3133;SDS011;1577;49.912;10.924;2023-12-07T04:43:38;33.33;;;18.20;;
3133;SDS011;1577;49.912;10.924;2023-12-07T04:46:04;30.93;;;16.40;;
3133;SDS011;1577;49.912;10.924;2023-12-07T04:48:30;32.78;;;16.20;;
3133;SDS011;1577;49.912;10.924;2023-12-07T04:50:55;24.40;;;15.93;;
3133;SDS011;1577;49.912;10.924;2023-12-07T04:53:21;35.73;;;16.90;;
3133;SDS011;1577;49.912;10.924;2023-12-07T04:55:47;27.67;;;14.27;;
3133;SDS011;1577;49.912;10.924;2023-12-07T04:58:15;32.08;;;16.08;;
3133;SDS011;1577;49.912;10.924;2023-12-07T05:00:40;24.67;;;15.63;;
3133;SDS011;1577;49.912;10.924;2023-12-07T05:03:06;34.17;;;18.63;;
3133;SDS011;1577;49.912;10.924;2023-12-07T05:05:32;32.10;;;18.17;;
3133;SDS011;1577;49.912;10.924;2023-12-07T05:07:57;33.23;;;16.90;;
3133;SDS011;1577;49.912;10.924;2023-12-07T05:10:23;41.47;;;17.37;;
3133;SDS011;1577;49.912;10.924;2023-12-07T05:12:52;34.93;;;17.53;;
3133;SDS011;1577;49.912;10.924;2023-12-07T05:15:17;33.75;;;18.30;;
3133;SDS011;1577;49.912;10.924;2023-12-07T05:17:43;37.73;;;17.63;;
3133;SDS011;1577;49.912;10.924;2023-12-07T05:20:09;40.47;;;19.73;;
3133;SDS011;1577;49.912;10.924;2023-12-07T05:22:34;36.00;;;17.60;;
3133;SDS011;1577;49.912;10.924;2023-12-07T05:25:00;36.10;;;18.27;;
3133;SDS011;1577;49.912;10.924;2023-12-07T05:27:25;40.23;;;19.80;;
3133;SDS011;1577;49.912;10.924;2023-12-07T05:29:51;40.37;;;20.10;;
3133;SDS011;1577;49.912;10.924;2023-12-07T05:32:17;38.67;;;19.17;;
3133;SDS011;1577;49.912;10.924;2023-12-07T05:34:42;39.53;;;19.87;;
3133;SDS011;1577;49.912;10.924;2023-12-07T05:37:08;43.77;;;20.60;;
3133;SDS011;1577;49.912;10.924;2023-12-07T05:39:34;36.10;;;19.00;;
3133;SDS011;1577;49.912;10.924;2023-12-07T05:41:59;46.50;;;20.90;;
3133;SDS011;1577;49.912;10.924;2023-12-07T05:44:25;46.07;;;20.97;;
3133;SDS011;1577;49.912;10.924;2023-12-07T05:46:51;45.90;;;21.40;;
3133;SDS011;1577;49.912;10.924;2023-12-07T05:49:17;49.85;;;23.13;;
3133;SDS011;1577;49.912;10.924;2023-12-07T05:51:42;43.30;;;20.70;;
3133;SDS011;1577;49.912;10.924;2023-12-07T05:54:08;42.27;;;20.43;;
3133;SDS011;1577;49.912;10.924;2023-12-07T05:56:33;45.37;;;20.97;;
3133;SDS011;1577;49.912;10.924;2023-12-07T05:58:59;49.30;;;19.77;;
3133;SDS011;1577;49.912;10.924;2023-12-07T06:01:25;41.97;;;20.37;;
3133;SDS011;1577;49.912;10.924;2023-12-07T06:03:50;48.03;;;20.57;;
3133;SDS011;1577;49.912;10.924;2023-12-07T06:06:16;45.63;;;20.13;;
3133;SDS011;1577;49.912;10.924;2023-12-07T06:08:41;45.20;;;20.27;;
3133;SDS011;1577;49.912;10.924;2023-12-07T06:11:07;44.47;;;22.00;;
3133;SDS011;1577;49.912;10.924;2023-12-07T06:13:32;42.07;;;19.97;;
3133;SDS011;1577;49.912;10.924;2023-12-07T06:15:58;54.23;;;20.90;;
3133;SDS011;1577;49.912;10.924;2023-12-07T06:18:24;50.97;;;21.47;;
3133;SDS011;1577;49.912;10.924;2023-12-07T06:20:50;48.20;;;23.27;;
3133;SDS011;1577;49.912;10.924;2023-12-07T06:23:15;54.03;;;23.23;;
3133;SDS011;1577;49.912;10.924;2023-12-07T06:25:41;46.60;;;20.90;;
3133;SDS011;1577;49.912;10.924;2023-12-07T06:28:07;47.93;;;20.97;;
3133;SDS011;1577;49.912;10.924;2023-12-07T06:30:32;45.90;;;21.33;;
3133;SDS011;1577;49.912;10.924;2023-12-07T06:32:58;45.73;;;20.70;;
3133;SDS011;1577;49.912;10.924;2023-12-07T06:35:23;42.17;;;18.70;;
3133;SDS011;1577;49.912;10.924;2023-12-07T06:37:49;40.83;;;20.07;;
3133;SDS011;1577;49.912;10.924;2023-12-07T06:40:15;46.80;;;21.07;;
3133;SDS011;1577;49.912;10.924;2023-12-07T06:42:40;45.27;;;20.93;;
3133;SDS011;1577;49.912;10.924;2023-12-07T06:45:06;44.10;;;21.33;;
3133;SDS011;1577;49.912;10.924;2023-12-07T06:47:36;43.88;;;19.55;;
3133;SDS011;1577;49.912;10.924;2023-12-07T06:50:03;44.70;;;20.95;;
3133;SDS011;1577;49.912;10.924;2023-12-07T06:52:30;39.70;;;19.83;;
3133;SDS011;1577;49.912;10.924;2023-12-07T06:54:55;47.07;;;21.50;;
3133;SDS011;1577;49.912;10.924;2023-12-07T06:57:21;43.10;;;20.47;;
3133;SDS011;1577;49.912;10.924;2023-12-07T06:59:46;47.23;;;20.43;;
3133;SDS011;1577;49.912;10.924;2023-12-07T07:02:12;44.43;;;22.10;;
3133;SDS011;1577;49.912;10.924;2023-12-07T07:04:38;55.37;;;22.53;;
3133;SDS011;1577;49.912;10.924;2023-12-07T07:07:04;54.23;;;22.57;;
3133;SDS011;1577;49.912;10.924;2023-12-07T07:09:29;54.73;;;22.60;;
3133;SDS011;1577;49.912;10.924;2023-12-07T07:11:55;47.60;;;22.13;;
3133;SDS011;1577;49.912;10.924;2023-12-07T07:14:20;46.13;;;21.70;;
3133;SDS011;1577;49.912;10.924;2023-12-07T07:16:46;52.47;;;23.23;;
3133;SDS011;1577;49.912;10.924;2023-12-07T07:19:13;49.43;;;21.40;;
3133;SDS011;1577;49.912;10.924;2023-12-07T07:21:38;48.90;;;22.70;;
3133;SDS011;1577;49.912;10.924;2023-12-07T07:24:04;52.23;;;23.53;;
3133;SDS011;1577;49.912;10.924;2023-12-07T07:26:31;52.35;;;23.30;;
3133;SDS011;1577;49.912;10.924;2023-12-07T07:28:57;48.17;;;23.00;;
3133;SDS011;1577;49.912;10.924;2023-12-07T07:31:22;51.93;;;23.83;;
3133;SDS011;1577;49.912;10.924;2023-12-07T07:33:48;57.33;;;23.60;;
3133;SDS011;1577;49.912;10.924;2023-12-07T07:36:14;60.63;;;23.97;;
3133;SDS011;1577;49.912;10.924;2023-12-07T07:38:40;50.25;;;23.08;;
3133;SDS011;1577;49.912;10.924;2023-12-07T07:41:06;48.05;;;23.10;;
3133;SDS011;1577;49.912;10.924;2023-12-07T07:43:31;49.53;;;21.70;;
3133;SDS011;1577;49.912;10.924;2023-12-07T07:46:03;52.47;;;24.52;;
3133;SDS011;1577;49.912;10.924;2023-12-07T07:48:29;60.22;;;25.52;;
3133;SDS011;1577;49.912;10.924;2023-12-07T07:50:55;53.90;;;24.93;;
3133;SDS011;1577;49.912;10.924;2023-12-07T07:53:20;55.27;;;23.47;;
3133;SDS011;1577;49.912;10.924;2023-12-07T07:55:46;57.57;;;22.90;;
3133;SDS011;1577;49.912;10.924;2023-12-07T07:58:11;52.47;;;23.93;;
3133;SDS011;1577;49.912;10.924;2023-12-07T08:00:37;52.20;;;23.20;;
3133;SDS011;1577;49.912;10.924;2023-12-07T08:03:02;52.00;;;23.23;;
3133;SDS011;1577;49.912;10.924;2023-12-07T08:05:28;53.37;;;23.13;;
3133;SDS011;1577;49.912;10.924;2023-12-07T08:07:54;50.00;;;22.73;;
3133;SDS011;1577;49.912;10.924;2023-12-07T08:10:20;56.73;;;24.20;;
3133;SDS011;1577;49.912;10.924;2023-12-07T08:12:45;56.63;;;27.47;;
3133;SDS011;1577;49.912;10.924;2023-12-07T08:15:11;59.23;;;25.60;;
3133;SDS011;1577;49.912;10.924;2023-12-07T08:17:40;47.58;;;22.73;;
3133;SDS011;1577;49.912;10.924;2023-12-07T08:20:07;59.70;;;26.42;;
3133;SDS011;1577;49.912;10.924;2023-12-07T08:22:36;54.28;;;24.50;;
3133;SDS011;1577;49.912;10.924;2023-12-07T08:25:03;56.95;;;24.70;;
3133;SDS011;1577;49.912;10.924;2023-12-07T08:27:30;57.10;;;24.85;;
3133;SDS011;1577;49.912;10.924;2023-12-07T08:29:57;50.40;;;22.15;;
3133;SDS011;1577;49.912;10.924;2023-12-07T08:32:23;49.72;;;23.58;;
3133;SDS011;1577;49.912;10.924;2023-12-07T08:34:50;42.72;;;21.90;;
3133;SDS011;1577;49.912;10.924;2023-12-07T08:37:16;45.47;;;22.08;;
3133;SDS011;1577;49.912;10.924;2023-12-07T08:39:42;49.30;;;23.20;;
3133;SDS011;1577;49.912;10.924;2023-12-07T08:42:07;39.97;;;20.93;;
3133;SDS011;1577;49.912;10.924;2023-12-07T08:44:33;43.83;;;21.17;;
3133;SDS011;1577;49.912;10.924;2023-12-07T08:46:59;44.47;;;21.90;;
3133;SDS011;1577;49.912;10.924;2023-12-07T08:49:24;43.67;;;22.40;;
3133;SDS011;1577;49.912;10.924;2023-12-07T08:51:51;49.47;;;23.33;;
3133;SDS011;1577;49.912;10.924;2023-12-07T08:54:18;38.80;;;19.90;;
3133;SDS011;1577;49.912;10.924;2023-12-07T08:56:44;43.80;;;21.20;;
3133;SDS011;1577;49.912;10.924;2023-12-07T08:59:10;38.28;;;21.00;;
3133;SDS011;1577;49.912;10.924;2023-12-07T09:01:36;37.77;;;19.40;;
3133;SDS011;1577;49.912;10.924;2023-12-07T09:04:01;39.33;;;20.80;;
3133;SDS011;1577;49.912;10.924;2023-12-07T09:06:28;35.78;;;18.80;;
3133;SDS011;1577;49.912;10.924;2023-12-07T09:08:53;30.77;;;17.83;;
3133;SDS011;1577;49.912;10.924;2023-12-07T09:11:20;33.10;;;18.27;;
3133;SDS011;1577;49.912;10.924;2023-12-07T09:13:49;34.80;;;19.42;;
3133;SDS011;1577;49.912;10.924;2023-12-07T09:16:14;32.37;;;19.50;;
3133;SDS011;1577;49.912;10.924;2023-12-07T09:18:41;28.17;;;17.40;;
3133;SDS011;1577;49.912;10.924;2023-12-07T09:21:07;35.90;;;19.13;;
3133;SDS011;1577;49.912;10.924;2023-12-07T09:23:33;34.60;;;18.50;;
3133;SDS011;1577;49.912;10.924;2023-12-07T09:25:59;30.53;;;18.07;;
3133;SDS011;1577;49.912;10.924;2023-12-07T09:28:25;28.83;;;18.00;;
3133;SDS011;1577;49.912;10.924;2023-12-07T09:30:51;31.40;;;17.60;;
3133;SDS011;1577;49.912;10.924;2023-12-07T09:33:16;29.33;;;17.20;;
3133;SDS011;1577;49.912;10.924;2023-12-07T09:35:42;32.37;;;19.20;;
3133;SDS011;1577;49.912;10.924;2023-12-07T09:38:08;32.73;;;19.40;;
3133;SDS011;1577;49.912;10.924;2023-12-07T09:40:34;28.67;;;17.57;;
3133;SDS011;1577;49.912;10.924;2023-12-07T09:43:00;35.17;;;17.97;;
3133;SDS011;1577;49.912;10.924;2023-12-07T09:45:26;30.67;;;17.20;;
3133;SDS011;1577;49.912;10.924;2023-12-07T09:47:53;26.23;;;16.40;;
3133;SDS011;1577;49.912;10.924;2023-12-07T09:50:19;25.10;;;15.80;;
3133;SDS011;1577;49.912;10.924;2023-12-07T09:52:53;31.10;;;17.70;;
3133;SDS011;1577;49.912;10.924;2023-12-07T09:55:21;28.53;;;18.43;;
3133;SDS011;1577;49.912;10.924;2023-12-07T09:57:47;28.33;;;15.73;;
3133;SDS011;1577;49.912;10.924;2023-12-07T10:00:14;30.17;;;16.93;;
3133;SDS011;1577;49.912;10.924;2023-12-07T10:02:41;27.67;;;16.90;;
3133;SDS011;1577;49.912;10.924;2023-12-07T10:05:10;28.20;;;17.60;;
3133;SDS011;1577;49.912;10.924;2023-12-07T10:07:42;26.03;;;16.60;;
3133;SDS011;1577;49.912;10.924;2023-12-07T10:10:13;25.03;;;16.60;;
3133;SDS011;1577;49.912;10.924;2023-12-07T10:12:55;27.97;;;17.47;;
3133;SDS011;1577;49.912;10.924;2023-12-07T10:15:23;31.10;;;17.53;;
3133;SDS011;1577;49.912;10.924;2023-12-07T10:17:53;26.83;;;17.60;;
3133;SDS011;1577;49.912;10.924;2023-12-07T10:20:22;28.33;;;17.30;;
3133;SDS011;1577;49.912;10.924;2023-12-07T10:23:08;22.20;;;15.63;;
3133;SDS011;1577;49.912;10.924;2023-12-07T10:25:41;27.63;;;18.30;;
3133;SDS011;1577;49.912;10.924;2023-12-07T10:28:07;28.70;;;16.77;;
3133;SDS011;1577;49.912;10.924;2023-12-07T10:30:37;24.70;;;16.73;;
3133;SDS011;1577;49.912;10.924;2023-12-07T10:33:05;25.70;;;14.90;;
3133;SDS011;1577;49.912;10.924;2023-12-07T10:35:32;26.33;;;18.30;;
3133;SDS011;1577;49.912;10.924;2023-12-07T10:37:58;29.00;;;18.27;;
3133;SDS011;1577;49.912;10.924;2023-12-07T10:40:24;26.10;;;16.33;;
3133;SDS011;1577;49.912;10.924;2023-12-07T10:42:51;32.90;;;20.93;;
3133;SDS011;1577;49.912;10.924;2023-12-07T10:45:21;29.00;;;19.37;;
3133;SDS011;1577;49.912;10.924;2023-12-07T10:47:54;24.33;;;14.70;;
3133;SDS011;1577;49.912;10.924;2023-12-07T10:50:36;25.93;;;16.50;;
3133;SDS011;1577;49.912;10.924;2023-12-07T10:55:47;23.33;;;15.40;;
3133;SDS011;1577;49.912;10.924;2023-12-07T10:58:17;22.40;;;15.33;;
3133;SDS011;1577;49.912;10.924;2023-12-07T11:00:45;25.20;;;15.43;;
3133;SDS011;1577;49.912;10.924;2023-12-07T11:03:15;22.70;;;13.93;;
3133;SDS011;1577;49.912;10.924;2023-12-07T11:05:43;21.77;;;15.03;;
3133;SDS011;1577;49.912;10.924;2023-12-07T11:08:11;21.17;;;15.10;;
3133;SDS011;1577;49.912;10.924;2023-12-07T11:10:58;21.00;;;14.77;;
3133;SDS011;1577;49.912;10.924;2023-12-07T11:13:32;20.97;;;14.30;;
3133;SDS011;1577;49.912;10.924;2023-12-07T11:16:00;17.93;;;13.23;;
3133;SDS011;1577;49.912;10.924;2023-12-07T11:18:27;20.70;;;13.30;;
3133;SDS011;1577;49.912;10.924;2023-12-07T11:20:54;19.20;;;12.40;;
3133;SDS011;1577;49.912;10.924;2023-12-07T11:23:20;16.27;;;12.00;;
3133;SDS011;1577;49.912;10.924;2023-12-07T11:25:46;18.03;;;11.53;;
3133;SDS011;1577;49.912;10.924;2023-12-07T11:28:13;15.73;;;10.93;;
3133;SDS011;1577;49.912;10.924;2023-12-07T11:30:43;20.80;;;12.93;;
3133;SDS011;1577;49.912;10.924;2023-12-07T11:33:11;17.43;;;9.87;;
3133;SDS011;1577;49.912;10.924;2023-12-07T11:38:27;15.83;;;11.10;;
3133;SDS011;1577;49.912;10.924;2023-12-07T11:40:53;14.10;;;10.80;;
3133;SDS011;1577;49.912;10.924;2023-12-07T11:45:55;15.17;;;10.33;;
3133;SDS011;1577;49.912;10.924;2023-12-07T11:48:21;16.03;;;11.00;;
3133;SDS011;1577;49.912;10.924;2023-12-07T11:50:57;15.60;;;9.70;;
3133;SDS011;1577;49.912;10.924;2023-12-07T11:53:24;14.30;;;9.87;;
3133;SDS011;1577;49.912;10.924;2023-12-07T11:55:51;12.27;;;9.30;;
3133;SDS011;1577;49.912;10.924;2023-12-07T11:58:17;15.17;;;9.33;;
3133;SDS011;1577;49.912;10.924;2023-12-07T12:00:43;12.83;;;8.63;;
3133;SDS011;1577;49.912;10.924;2023-12-07T12:03:11;14.87;;;10.10;;
3133;SDS011;1577;49.912;10.924;2023-12-07T12:05:37;13.50;;;10.00;;
3133;SDS011;1577;49.912;10.924;2023-12-07T12:08:05;15.73;;;9.73;;
3133;SDS011;1577;49.912;10.924;2023-12-07T12:10:31;13.57;;;9.60;;
3133;SDS011;1577;49.912;10.924;2023-12-07T12:12:57;16.20;;;10.53;;
3133;SDS011;1577;49.912;10.924;2023-12-07T12:15:23;16.50;;;10.40;;
3133;SDS011;1577;49.912;10.924;2023-12-07T12:17:49;12.00;;;8.90;;
3133;SDS011;1577;49.912;10.924;2023-12-07T12:20:15;16.07;;;10.73;;
3133;SDS011;1577;49.912;10.924;2023-12-07T12:22:42;15.43;;;10.80;;
3133;SDS011;1577;49.912;10.924;2023-12-07T12:25:08;15.63;;;10.97;;
3133;SDS011;1577;49.912;10.924;2023-12-07T12:27:35;15.50;;;11.50;;
3133;SDS011;1577;49.912;10.924;2023-12-07T12:30:02;16.80;;;10.90;;
3133;SDS011;1577;49.912;10.924;2023-12-07T12:32:32;16.80;;;11.63;;
3133;SDS011;1577;49.912;10.924;2023-12-07T12:34:59;15.73;;;10.70;;
3133;SDS011;1577;49.912;10.924;2023-12-07T12:37:24;18.50;;;13.30;;
3133;SDS011;1577;49.912;10.924;2023-12-07T12:39:50;21.13;;;13.50;;
3133;SDS011;1577;49.912;10.924;2023-12-07T12:42:17;18.07;;;12.60;;
3133;SDS011;1577;49.912;10.924;2023-12-07T12:44:43;17.67;;;12.47;;
3133;SDS011;1577;49.912;10.924;2023-12-07T12:47:09;18.47;;;11.93;;
3133;SDS011;1577;49.912;10.924;2023-12-07T12:49:36;15.67;;;12.03;;
3133;SDS011;1577;49.912;10.924;2023-12-07T12:52:02;21.40;;;12.00;;
3133;SDS011;1577;49.912;10.924;2023-12-07T12:54:32;19.07;;;11.17;;
3133;SDS011;1577;49.912;10.924;2023-12-07T12:56:58;17.53;;;12.17;;
3133;SDS011;1577;49.912;10.924;2023-12-07T12:59:24;18.33;;;12.80;;
3133;SDS011;1577;49.912;10.924;2023-12-07T13:01:50;17.80;;;12.23;;
3133;SDS011;1577;49.912;10.924;2023-12-07T13:04:16;17.80;;;12.70;;
3133;SDS011;1577;49.912;10.924;2023-12-07T13:06:42;20.00;;;12.73;;
3133;SDS011;1577;49.912;10.924;2023-12-07T13:09:08;16.70;;;11.93;;
3133;SDS011;1577;49.912;10.924;2023-12-07T13:11:34;19.57;;;12.20;;
3133;SDS011;1577;49.912;10.924;2023-12-07T13:14:00;16.37;;;12.40;;
3133;SDS011;1577;49.912;10.924;2023-12-07T13:16:31;19.17;;;13.10;;
3133;SDS011;1577;49.912;10.924;2023-12-07T13:18:57;20.23;;;13.80;;
3133;SDS011;1577;49.912;10.924;2023-12-07T13:21:23;21.87;;;13.50;;
3133;SDS011;1577;49.912;10.924;2023-12-07T13:23:50;19.30;;;13.10;;
3133;SDS011;1577;49.912;10.924;2023-12-07T13:26:16;21.63;;;13.23;;
3133;SDS011;1577;49.912;10.924;2023-12-07T13:28:42;23.60;;;15.27;;
3133;SDS011;1577;49.912;10.924;2023-12-07T13:31:08;23.67;;;14.43;;
3133;SDS011;1577;49.912;10.924;2023-12-07T13:33:34;19.67;;;13.30;;
3133;SDS011;1577;49.912;10.924;2023-12-07T13:36:00;19.93;;;14.37;;
3133;SDS011;1577;49.912;10.924;2023-12-07T13:38:27;20.10;;;14.30;;
3133;SDS011;1577;49.912;10.924;2023-12-07T13:40:55;20.20;;;13.07;;
3133;SDS011;1577;49.912;10.924;2023-12-07T13:43:21;19.60;;;13.90;;
3133;SDS011;1577;49.912;10.924;2023-12-07T13:45:49;17.40;;;12.60;;
3133;SDS011;1577;49.912;10.924;2023-12-07T13:48:15;20.93;;;12.27;;
3133;SDS011;1577;49.912;10.924;2023-12-07T13:50:42;17.97;;;12.73;;
3133;SDS011;1577;49.912;10.924;2023-12-07T13:53:08;19.13;;;11.70;;
3133;SDS011;1577;49.912;10.924;2023-12-07T13:55:35;19.57;;;12.43;;
3133;SDS011;1577;49.912;10.924;2023-12-07T13:58:02;18.33;;;12.20;;
3133;SDS011;1577;49.912;10.924;2023-12-07T14:00:28;18.33;;;12.63;;
3133;SDS011;1577;49.912;10.924;2023-12-07T14:02:54;20.13;;;13.10;;
3133;SDS011;1577;49.912;10.924;2023-12-07T14:05:20;23.23;;;13.53;;
3133;SDS011;1577;49.912;10.924;2023-12-07T14:07:46;21.93;;;13.43;;
3133;SDS011;1577;49.912;10.924;2023-12-07T14:10:12;22.37;;;13.57;;
3133;SDS011;1577;49.912;10.924;2023-12-07T14:12:38;26.40;;;13.67;;
3133;SDS011;1577;49.912;10.924;2023-12-07T14:15:04;23.60;;;14.80;;
3133;SDS011;1577;49.912;10.924;2023-12-07T14:17:30;26.47;;;15.67;;
3133;SDS011;1577;49.912;10.924;2023-12-07T14:20:02;24.15;;;15.60;;
3133;SDS011;1577;49.912;10.924;2023-12-07T14:22:28;22.37;;;15.17;;
3133;SDS011;1577;49.912;10.924;2023-12-07T14:24:54;22.67;;;15.30;;
3133;SDS011;1577;49.912;10.924;2023-12-07T14:27:20;24.07;;;16.27;;
3133;SDS011;1577;49.912;10.924;2023-12-07T14:29:46;24.20;;;16.50;;
3133;SDS011;1577;49.912;10.924;2023-12-07T14:32:12;33.13;;;16.03;;
3133;SDS011;1577;49.912;10.924;2023-12-07T14:34:38;25.97;;;15.97;;
3133;SDS011;1577;49.912;10.924;2023-12-07T14:37:04;25.50;;;17.47;;
3133;SDS011;1577;49.912;10.924;2023-12-07T14:39:30;26.97;;;16.47;;
3133;SDS011;1577;49.912;10.924;2023-12-07T14:41:56;26.33;;;17.20;;
3133;SDS011;1577;49.912;10.924;2023-12-07T14:44:23;31.60;;;18.20;;